sensor_id;sensor_type;location;lat;lon;timestamp;P1;durP1;ratioP1;P2;durP2;ratioP2
64834;SDS011;51293;59.296;18.006;2022-10-16T00:00:56;20.58;;;11.50;;
64834;SDS011;51293;59.296;18.006;2022-10-16T00:03:21;23.92;;;12.20;;
64834;SDS011;51293;59.296;18.006;2022-10-16T00:05:47;22.42;;;11.57;;
64834;SDS011;51293;59.296;18.006;2022-10-16T00:08:12;20.33;;;11.05;;
64834;SDS011;51293;59.296;18.006;2022-10-16T00:10:38;18.48;;;10.27;;
64834;SDS011;51293;59.296;18.006;2022-10-16T00:13:05;19.77;;;10.88;;
64834;SDS011;51293;59.296;18.006;2022-10-16T00:15:32;20.55;;;10.57;;
64834;SDS011;51293;59.296;18.006;2022-10-16T00:18:01;21.95;;;11.20;;
64834;SDS011;51293;59.296;18.006;2022-10-16T00:20:26;18.67;;;10.38;;
64834;SDS011;51293;59.296;18.006;2022-10-16T00:22:52;18.75;;;10.63;;
64834;SDS011;51293;59.296;18.006;2022-10-16T00:25:17;18.30;;;10.07;;
64834;SDS011;51293;59.296;18.006;2022-10-16T00:27:42;18.85;;;10.00;;
64834;SDS011;51293;59.296;18.006;2022-10-16T00:30:08;17.40;;;10.65;;
64834;SDS011;51293;59.296;18.006;2022-10-16T00:32:33;19.80;;;10.70;;
64834;SDS011;51293;59.296;18.006;2022-10-16T00:34:59;16.55;;;10.10;;
64834;SDS011;51293;59.296;18.006;2022-10-16T00:37:24;16.25;;;9.90;;
64834;SDS011;51293;59.296;18.006;2022-10-16T00:39:50;22.27;;;10.35;;
64834;SDS011;51293;59.296;18.006;2022-10-16T00:42:16;18.23;;;10.80;;
64834;SDS011;51293;59.296;18.006;2022-10-16T00:44:53;16.30;;;10.15;;
64834;SDS011;51293;59.296;18.006;2022-10-16T00:47:25;17.95;;;10.35;;
64834;SDS011;51293;59.296;18.006;2022-10-16T00:50:09;16.98;;;9.65;;
64834;SDS011;51293;59.296;18.006;2022-10-16T00:52:41;20.00;;;9.45;;
64834;SDS011;51293;59.296;18.006;2022-10-16T00:55:09;20.02;;;10.73;;
64834;SDS011;51293;59.296;18.006;2022-10-16T00:57:35;19.48;;;10.05;;
64834;SDS011;51293;59.296;18.006;2022-10-16T01:00:03;18.48;;;10.18;;
64834;SDS011;51293;59.296;18.006;2022-10-16T01:02:30;17.88;;;10.20;;
64834;SDS011;51293;59.296;18.006;2022-10-16T01:04:55;19.45;;;10.10;;
64834;SDS011;51293;59.296;18.006;2022-10-16T01:12:46;18.75;;;11.05;;
64834;SDS011;51293;59.296;18.006;2022-10-16T01:18:26;22.77;;;11.00;;
64834;SDS011;51293;59.296;18.006;2022-10-16T01:20:59;16.33;;;10.43;;
64834;SDS011;51293;59.296;18.006;2022-10-16T01:28:54;17.50;;;10.55;;
64834;SDS011;51293;59.296;18.006;2022-10-16T01:31:24;15.55;;;9.60;;
64834;SDS011;51293;59.296;18.006;2022-10-16T01:36:57;16.55;;;10.07;;
64834;SDS011;51293;59.296;18.006;2022-10-16T01:42:01;12.88;;;8.77;;
64834;SDS011;51293;59.296;18.006;2022-10-16T01:44:33;15.68;;;9.52;;
64834;SDS011;51293;59.296;18.006;2022-10-16T01:47:01;20.80;;;10.90;;
64834;SDS011;51293;59.296;18.006;2022-10-16T01:49:28;15.68;;;9.90;;
64834;SDS011;51293;59.296;18.006;2022-10-16T01:51:58;17.48;;;10.55;;
64834;SDS011;51293;59.296;18.006;2022-10-16T01:54:27;16.75;;;9.52;;
64834;SDS011;51293;59.296;18.006;2022-10-16T01:56:56;17.88;;;9.85;;
64834;SDS011;51293;59.296;18.006;2022-10-16T01:59:23;15.48;;;9.82;;
64834;SDS011;51293;59.296;18.006;2022-10-16T02:01:52;15.57;;;9.40;;
64834;SDS011;51293;59.296;18.006;2022-10-16T02:04:24;15.02;;;9.10;;
64834;SDS011;51293;59.296;18.006;2022-10-16T02:06:55;15.48;;;9.02;;
64834;SDS011;51293;59.296;18.006;2022-10-16T02:09:20;15.25;;;9.30;;
64834;SDS011;51293;59.296;18.006;2022-10-16T02:11:46;15.15;;;9.07;;
64834;SDS011;51293;59.296;18.006;2022-10-16T02:14:14;19.40;;;9.98;;
64834;SDS011;51293;59.296;18.006;2022-10-16T02:16:41;15.90;;;10.27;;
64834;SDS011;51293;59.296;18.006;2022-10-16T02:19:11;19.10;;;10.32;;
64834;SDS011;51293;59.296;18.006;2022-10-16T02:22:13;19.58;;;9.73;;
64834;SDS011;51293;59.296;18.006;2022-10-16T02:27:40;16.70;;;9.52;;
64834;SDS011;51293;59.296;18.006;2022-10-16T02:30:27;16.38;;;9.57;;
64834;SDS011;51293;59.296;18.006;2022-10-16T02:32:57;19.80;;;10.15;;
64834;SDS011;51293;59.296;18.006;2022-10-16T02:35:25;15.27;;;9.60;;
64834;SDS011;51293;59.296;18.006;2022-10-16T02:37:52;16.83;;;9.80;;
64834;SDS011;51293;59.296;18.006;2022-10-16T02:40:19;17.50;;;9.02;;
64834;SDS011;51293;59.296;18.006;2022-10-16T02:42:49;16.88;;;9.13;;
64834;SDS011;51293;59.296;18.006;2022-10-16T02:45:15;15.70;;;8.70;;
64834;SDS011;51293;59.296;18.006;2022-10-16T02:47:41;15.88;;;8.85;;
64834;SDS011;51293;59.296;18.006;2022-10-16T02:50:07;14.60;;;8.77;;
64834;SDS011;51293;59.296;18.006;2022-10-16T02:52:32;16.08;;;8.70;;
64834;SDS011;51293;59.296;18.006;2022-10-16T02:54:58;15.82;;;7.88;;
64834;SDS011;51293;59.296;18.006;2022-10-16T02:57:23;14.07;;;8.50;;
64834;SDS011;51293;59.296;18.006;2022-10-16T02:59:48;12.25;;;8.02;;
64834;SDS011;51293;59.296;18.006;2022-10-16T03:02:14;12.68;;;7.82;;
64834;SDS011;51293;59.296;18.006;2022-10-16T03:04:39;14.75;;;8.38;;
64834;SDS011;51293;59.296;18.006;2022-10-16T03:07:05;11.10;;;7.70;;
64834;SDS011;51293;59.296;18.006;2022-10-16T03:09:30;13.25;;;8.00;;
64834;SDS011;51293;59.296;18.006;2022-10-16T03:11:56;18.00;;;8.32;;
64834;SDS011;51293;59.296;18.006;2022-10-16T03:14:21;11.85;;;7.47;;
64834;SDS011;51293;59.296;18.006;2022-10-16T03:16:46;12.75;;;8.13;;
64834;SDS011;51293;59.296;18.006;2022-10-16T03:19:12;13.45;;;8.13;;
64834;SDS011;51293;59.296;18.006;2022-10-16T03:21:37;11.63;;;7.50;;
64834;SDS011;51293;59.296;18.006;2022-10-16T03:24:03;11.57;;;7.15;;
64834;SDS011;51293;59.296;18.006;2022-10-16T03:26:28;13.18;;;7.47;;
64834;SDS011;51293;59.296;18.006;2022-10-16T03:28:54;13.25;;;7.47;;
64834;SDS011;51293;59.296;18.006;2022-10-16T03:31:19;12.38;;;7.47;;
64834;SDS011;51293;59.296;18.006;2022-10-16T03:33:44;13.65;;;7.22;;
64834;SDS011;51293;59.296;18.006;2022-10-16T03:36:10;11.65;;;7.63;;
64834;SDS011;51293;59.296;18.006;2022-10-16T03:38:35;11.65;;;7.30;;
64834;SDS011;51293;59.296;18.006;2022-10-16T03:41:01;11.15;;;7.15;;
64834;SDS011;51293;59.296;18.006;2022-10-16T03:43:26;11.95;;;7.55;;
64834;SDS011;51293;59.296;18.006;2022-10-16T03:45:51;9.68;;;6.60;;
64834;SDS011;51293;59.296;18.006;2022-10-16T03:48:17;14.10;;;7.63;;
64834;SDS011;51293;59.296;18.006;2022-10-16T03:50:43;11.52;;;7.00;;
64834;SDS011;51293;59.296;18.006;2022-10-16T03:53:09;13.07;;;7.38;;
64834;SDS011;51293;59.296;18.006;2022-10-16T03:55:34;10.02;;;6.70;;
64834;SDS011;51293;59.296;18.006;2022-10-16T03:58:00;10.80;;;6.78;;
64834;SDS011;51293;59.296;18.006;2022-10-16T04:00:26;10.15;;;6.68;;
64834;SDS011;51293;59.296;18.006;2022-10-16T04:02:51;11.60;;;6.50;;
64834;SDS011;51293;59.296;18.006;2022-10-16T04:05:17;11.27;;;6.53;;
64834;SDS011;51293;59.296;18.006;2022-10-16T04:07:42;12.63;;;6.75;;
64834;SDS011;51293;59.296;18.006;2022-10-16T04:10:08;13.57;;;6.82;;
64834;SDS011;51293;59.296;18.006;2022-10-16T04:12:33;10.10;;;6.43;;
64834;SDS011;51293;59.296;18.006;2022-10-16T04:14:59;10.88;;;6.63;;
64834;SDS011;51293;59.296;18.006;2022-10-16T04:17:24;14.18;;;6.93;;
64834;SDS011;51293;59.296;18.006;2022-10-16T04:19:49;11.07;;;6.55;;
64834;SDS011;51293;59.296;18.006;2022-10-16T04:22:15;10.88;;;6.68;;
64834;SDS011;51293;59.296;18.006;2022-10-16T04:24:40;11.45;;;6.80;;
64834;SDS011;51293;59.296;18.006;2022-10-16T04:27:05;14.70;;;6.80;;
64834;SDS011;51293;59.296;18.006;2022-10-16T04:29:31;11.70;;;6.38;;
64834;SDS011;51293;59.296;18.006;2022-10-16T04:31:56;10.50;;;6.22;;
64834;SDS011;51293;59.296;18.006;2022-10-16T04:34:21;9.00;;;5.78;;
64834;SDS011;51293;59.296;18.006;2022-10-16T04:36:47;11.25;;;6.40;;
64834;SDS011;51293;59.296;18.006;2022-10-16T04:39:16;14.23;;;6.40;;
64834;SDS011;51293;59.296;18.006;2022-10-16T04:41:42;14.07;;;6.07;;
64834;SDS011;51293;59.296;18.006;2022-10-16T04:44:07;8.38;;;5.80;;
64834;SDS011;51293;59.296;18.006;2022-10-16T04:46:33;8.23;;;5.80;;
64834;SDS011;51293;59.296;18.006;2022-10-16T04:48:58;10.68;;;5.70;;
64834;SDS011;51293;59.296;18.006;2022-10-16T04:51:24;8.68;;;5.22;;
64834;SDS011;51293;59.296;18.006;2022-10-16T04:53:50;10.38;;;5.95;;
64834;SDS011;51293;59.296;18.006;2022-10-16T04:56:16;7.72;;;5.38;;
64834;SDS011;51293;59.296;18.006;2022-10-16T04:58:41;10.10;;;5.55;;
64834;SDS011;51293;59.296;18.006;2022-10-16T05:01:06;8.73;;;5.65;;
64834;SDS011;51293;59.296;18.006;2022-10-16T05:03:32;10.35;;;6.20;;
64834;SDS011;51293;59.296;18.006;2022-10-16T05:05:57;10.07;;;6.05;;
64834;SDS011;51293;59.296;18.006;2022-10-16T05:08:23;10.93;;;5.65;;
64834;SDS011;51293;59.296;18.006;2022-10-16T05:10:48;9.25;;;6.07;;
64834;SDS011;51293;59.296;18.006;2022-10-16T05:13:14;9.60;;;6.22;;
64834;SDS011;51293;59.296;18.006;2022-10-16T05:15:39;11.60;;;6.00;;
64834;SDS011;51293;59.296;18.006;2022-10-16T05:18:04;10.07;;;6.38;;
64834;SDS011;51293;59.296;18.006;2022-10-16T05:20:30;11.32;;;6.53;;
64834;SDS011;51293;59.296;18.006;2022-10-16T05:22:55;10.88;;;6.18;;
64834;SDS011;51293;59.296;18.006;2022-10-16T05:25:20;10.75;;;6.53;;
64834;SDS011;51293;59.296;18.006;2022-10-16T05:27:49;10.45;;;6.35;;
64834;SDS011;51293;59.296;18.006;2022-10-16T05:30:15;10.65;;;6.50;;
64834;SDS011;51293;59.296;18.006;2022-10-16T05:32:41;14.07;;;6.28;;
64834;SDS011;51293;59.296;18.006;2022-10-16T05:35:10;13.43;;;6.80;;
64834;SDS011;51293;59.296;18.006;2022-10-16T05:37:36;10.73;;;7.10;;
64834;SDS011;51293;59.296;18.006;2022-10-16T05:40:01;13.98;;;7.72;;
64834;SDS011;51293;59.296;18.006;2022-10-16T05:42:29;13.25;;;7.13;;
64834;SDS011;51293;59.296;18.006;2022-10-16T05:44:55;14.02;;;8.02;;
64834;SDS011;51293;59.296;18.006;2022-10-16T05:47:20;12.88;;;7.63;;
64834;SDS011;51293;59.296;18.006;2022-10-16T05:49:46;14.65;;;8.15;;
64834;SDS011;51293;59.296;18.006;2022-10-16T05:52:11;11.60;;;8.07;;
64834;SDS011;51293;59.296;18.006;2022-10-16T05:54:37;16.95;;;8.15;;
64834;SDS011;51293;59.296;18.006;2022-10-16T05:57:02;16.40;;;8.70;;
64834;SDS011;51293;59.296;18.006;2022-10-16T05:59:27;18.50;;;9.00;;
64834;SDS011;51293;59.296;18.006;2022-10-16T06:01:53;19.92;;;8.90;;
64834;SDS011;51293;59.296;18.006;2022-10-16T06:04:18;17.00;;;8.88;;
64834;SDS011;51293;59.296;18.006;2022-10-16T06:06:44;14.00;;;9.05;;
64834;SDS011;51293;59.296;18.006;2022-10-16T06:09:09;19.13;;;9.45;;
64834;SDS011;51293;59.296;18.006;2022-10-16T06:11:34;19.20;;;8.88;;
64834;SDS011;51293;59.296;18.006;2022-10-16T06:14:01;15.77;;;10.13;;
64834;SDS011;51293;59.296;18.006;2022-10-16T06:16:31;19.67;;;10.50;;
64834;SDS011;51293;59.296;18.006;2022-10-16T06:18:57;19.90;;;10.40;;
64834;SDS011;51293;59.296;18.006;2022-10-16T06:21:24;21.15;;;10.98;;
64834;SDS011;51293;59.296;18.006;2022-10-16T06:23:50;21.00;;;11.15;;
64834;SDS011;51293;59.296;18.006;2022-10-16T06:26:18;19.08;;;10.52;;
64834;SDS011;51293;59.296;18.006;2022-10-16T06:28:44;21.27;;;11.48;;
64834;SDS011;51293;59.296;18.006;2022-10-16T06:31:11;23.60;;;11.68;;
64834;SDS011;51293;59.296;18.006;2022-10-16T06:33:37;18.95;;;10.85;;
64834;SDS011;51293;59.296;18.006;2022-10-16T06:36:04;20.65;;;11.27;;
64834;SDS011;51293;59.296;18.006;2022-10-16T06:38:31;18.35;;;11.13;;
64834;SDS011;51293;59.296;18.006;2022-10-16T06:40:57;24.33;;;11.70;;
64834;SDS011;51293;59.296;18.006;2022-10-16T06:43:23;19.83;;;10.73;;
64834;SDS011;51293;59.296;18.006;2022-10-16T06:45:55;20.77;;;11.05;;
64834;SDS011;51293;59.296;18.006;2022-10-16T06:48:22;19.80;;;11.88;;
64834;SDS011;51293;59.296;18.006;2022-10-16T06:50:55;23.17;;;11.57;;
64834;SDS011;51293;59.296;18.006;2022-10-16T06:53:23;20.13;;;10.77;;
64834;SDS011;51293;59.296;18.006;2022-10-16T06:55:49;22.05;;;11.43;;
64834;SDS011;51293;59.296;18.006;2022-10-16T06:58:15;20.85;;;11.35;;
64834;SDS011;51293;59.296;18.006;2022-10-16T07:00:40;18.05;;;11.05;;
64834;SDS011;51293;59.296;18.006;2022-10-16T07:03:05;21.08;;;10.88;;
64834;SDS011;51293;59.296;18.006;2022-10-16T07:05:31;19.52;;;10.23;;
64834;SDS011;51293;59.296;18.006;2022-10-16T07:07:56;18.98;;;10.80;;
64834;SDS011;51293;59.296;18.006;2022-10-16T07:10:22;20.15;;;11.68;;
64834;SDS011;51293;59.296;18.006;2022-10-16T07:12:49;21.85;;;10.43;;
64834;SDS011;51293;59.296;18.006;2022-10-16T07:15:14;19.35;;;9.60;;
64834;SDS011;51293;59.296;18.006;2022-10-16T07:17:40;16.55;;;9.32;;
64834;SDS011;51293;59.296;18.006;2022-10-16T07:20:05;16.60;;;9.00;;
64834;SDS011;51293;59.296;18.006;2022-10-16T07:22:31;17.83;;;9.63;;
64834;SDS011;51293;59.296;18.006;2022-10-16T07:24:57;15.27;;;9.27;;
64834;SDS011;51293;59.296;18.006;2022-10-16T07:27:23;13.88;;;8.43;;
64834;SDS011;51293;59.296;18.006;2022-10-16T07:29:49;13.10;;;7.80;;
64834;SDS011;51293;59.296;18.006;2022-10-16T07:32:14;13.10;;;8.10;;
64834;SDS011;51293;59.296;18.006;2022-10-16T07:34:40;12.32;;;7.65;;
64834;SDS011;51293;59.296;18.006;2022-10-16T07:37:05;10.25;;;6.93;;
64834;SDS011;51293;59.296;18.006;2022-10-16T07:39:30;12.38;;;6.78;;
64834;SDS011;51293;59.296;18.006;2022-10-16T07:41:56;11.25;;;6.35;;
64834;SDS011;51293;59.296;18.006;2022-10-16T07:44:21;11.93;;;6.80;;
64834;SDS011;51293;59.296;18.006;2022-10-16T07:46:46;11.18;;;6.50;;
64834;SDS011;51293;59.296;18.006;2022-10-16T07:49:12;12.43;;;6.40;;
64834;SDS011;51293;59.296;18.006;2022-10-16T07:51:37;11.73;;;5.88;;
64834;SDS011;51293;59.296;18.006;2022-10-16T07:54:07;9.35;;;5.70;;
64834;SDS011;51293;59.296;18.006;2022-10-16T07:56:34;9.70;;;5.55;;
64834;SDS011;51293;59.296;18.006;2022-10-16T07:58:59;10.68;;;5.30;;
64834;SDS011;51293;59.296;18.006;2022-10-16T08:01:24;10.50;;;5.15;;
64834;SDS011;51293;59.296;18.006;2022-10-16T08:03:51;11.55;;;5.43;;
64834;SDS011;51293;59.296;18.006;2022-10-16T08:06:17;9.88;;;5.95;;
64834;SDS011;51293;59.296;18.006;2022-10-16T08:08:43;11.50;;;5.45;;
64834;SDS011;51293;59.296;18.006;2022-10-16T08:11:08;9.43;;;5.40;;
64834;SDS011;51293;59.296;18.006;2022-10-16T08:13:35;7.95;;;5.13;;
64834;SDS011;51293;59.296;18.006;2022-10-16T08:16:00;8.35;;;5.32;;
64834;SDS011;51293;59.296;18.006;2022-10-16T08:18:26;8.65;;;5.00;;
64834;SDS011;51293;59.296;18.006;2022-10-16T08:20:55;8.18;;;4.88;;
64834;SDS011;51293;59.296;18.006;2022-10-16T08:23:22;9.57;;;5.35;;
64834;SDS011;51293;59.296;18.006;2022-10-16T08:25:50;8.40;;;4.93;;
64834;SDS011;51293;59.296;18.006;2022-10-16T08:28:16;10.00;;;5.40;;
64834;SDS011;51293;59.296;18.006;2022-10-16T08:30:41;8.15;;;4.97;;
64834;SDS011;51293;59.296;18.006;2022-10-16T08:33:07;7.82;;;4.57;;
64834;SDS011;51293;59.296;18.006;2022-10-16T08:35:32;8.00;;;4.55;;
64834;SDS011;51293;59.296;18.006;2022-10-16T08:37:58;8.15;;;4.65;;
64834;SDS011;51293;59.296;18.006;2022-10-16T08:40:24;8.82;;;4.70;;
64834;SDS011;51293;59.296;18.006;2022-10-16T08:46:15;7.40;;;4.47;;
64834;SDS011;51293;59.296;18.006;2022-10-16T08:49:02;9.73;;;4.53;;
64834;SDS011;51293;59.296;18.006;2022-10-16T08:51:32;6.38;;;4.13;;
64834;SDS011;51293;59.296;18.006;2022-10-16T08:54:05;9.73;;;4.65;;
64834;SDS011;51293;59.296;18.006;2022-10-16T08:56:40;7.93;;;4.40;;
64834;SDS011;51293;59.296;18.006;2022-10-16T08:59:06;5.68;;;3.95;;
64834;SDS011;51293;59.296;18.006;2022-10-16T09:01:45;5.65;;;3.92;;
64834;SDS011;51293;59.296;18.006;2022-10-16T09:04:22;6.10;;;4.07;;
64834;SDS011;51293;59.296;18.006;2022-10-16T09:07:05;6.97;;;4.20;;
64834;SDS011;51293;59.296;18.006;2022-10-16T09:15:14;4.88;;;3.03;;
64834;SDS011;51293;59.296;18.006;2022-10-16T09:23:45;5.13;;;3.25;;
64834;SDS011;51293;59.296;18.006;2022-10-16T09:26:13;5.95;;;3.33;;
64834;SDS011;51293;59.296;18.006;2022-10-16T09:28:40;5.43;;;3.47;;
64834;SDS011;51293;59.296;18.006;2022-10-16T09:31:09;6.80;;;3.45;;
64834;SDS011;51293;59.296;18.006;2022-10-16T09:33:40;6.18;;;3.20;;
64834;SDS011;51293;59.296;18.006;2022-10-16T09:36:08;8.65;;;3.67;;
64834;SDS011;51293;59.296;18.006;2022-10-16T09:38:36;6.57;;;3.50;;
64834;SDS011;51293;59.296;18.006;2022-10-16T09:41:03;7.47;;;3.63;;
64834;SDS011;51293;59.296;18.006;2022-10-16T09:43:51;5.68;;;3.58;;
64834;SDS011;51293;59.296;18.006;2022-10-16T09:46:30;5.15;;;3.13;;
64834;SDS011;51293;59.296;18.006;2022-10-16T09:49:01;7.53;;;3.25;;
64834;SDS011;51293;59.296;18.006;2022-10-16T09:51:34;7.20;;;3.10;;
64834;SDS011;51293;59.296;18.006;2022-10-16T09:54:02;7.53;;;3.03;;
64834;SDS011;51293;59.296;18.006;2022-10-16T09:56:39;4.68;;;3.17;;
64834;SDS011;51293;59.296;18.006;2022-10-16T09:59:10;9.23;;;3.30;;
64834;SDS011;51293;59.296;18.006;2022-10-16T10:01:44;4.03;;;2.80;;
64834;SDS011;51293;59.296;18.006;2022-10-16T10:04:12;8.40;;;3.15;;
64834;SDS011;51293;59.296;18.006;2022-10-16T10:06:43;5.93;;;2.90;;
64834;SDS011;51293;59.296;18.006;2022-10-16T10:12:02;6.72;;;2.80;;
64834;SDS011;51293;59.296;18.006;2022-10-16T10:14:35;9.73;;;3.35;;
64834;SDS011;51293;59.296;18.006;2022-10-16T10:17:17;7.28;;;2.75;;
64834;SDS011;51293;59.296;18.006;2022-10-16T10:19:51;5.53;;;2.80;;
64834;SDS011;51293;59.296;18.006;2022-10-16T10:22:43;10.55;;;2.60;;
64834;SDS011;51293;59.296;18.006;2022-10-16T10:30:15;13.30;;;2.78;;
64834;SDS011;51293;59.296;18.006;2022-10-16T10:33:24;8.45;;;2.92;;
64834;SDS011;51293;59.296;18.006;2022-10-16T10:38:50;6.05;;;2.55;;
64834;SDS011;51293;59.296;18.006;2022-10-16T10:49:23;6.47;;;2.47;;
64834;SDS011;51293;59.296;18.006;2022-10-16T10:55:23;10.10;;;2.90;;
64834;SDS011;51293;59.296;18.006;2022-10-16T11:08:49;6.35;;;2.25;;
64834;SDS011;51293;59.296;18.006;2022-10-16T11:11:20;7.38;;;2.53;;
64834;SDS011;51293;59.296;18.006;2022-10-16T11:13:54;6.30;;;2.05;;
64834;SDS011;51293;59.296;18.006;2022-10-16T11:16:27;6.28;;;2.38;;
64834;SDS011;51293;59.296;18.006;2022-10-16T11:18:56;8.23;;;2.50;;
64834;SDS011;51293;59.296;18.006;2022-10-16T11:21:27;5.60;;;2.55;;
64834;SDS011;51293;59.296;18.006;2022-10-16T11:26:33;5.13;;;2.30;;
64834;SDS011;51293;59.296;18.006;2022-10-16T11:29:03;6.10;;;2.58;;
64834;SDS011;51293;59.296;18.006;2022-10-16T11:31:43;5.00;;;2.70;;
64834;SDS011;51293;59.296;18.006;2022-10-16T11:34:17;9.82;;;2.50;;
64834;SDS011;51293;59.296;18.006;2022-10-16T11:36:51;7.90;;;2.30;;
64834;SDS011;51293;59.296;18.006;2022-10-16T11:46:48;5.82;;;2.38;;
64834;SDS011;51293;59.296;18.006;2022-10-16T11:49:24;8.18;;;2.50;;
64834;SDS011;51293;59.296;18.006;2022-10-16T11:51:56;4.65;;;2.35;;
64834;SDS011;51293;59.296;18.006;2022-10-16T11:54:37;5.38;;;2.65;;
64834;SDS011;51293;59.296;18.006;2022-10-16T11:57:22;5.13;;;2.33;;
64834;SDS011;51293;59.296;18.006;2022-10-16T11:59:52;6.50;;;2.80;;
64834;SDS011;51293;59.296;18.006;2022-10-16T12:10:40;5.65;;;2.50;;
64834;SDS011;51293;59.296;18.006;2022-10-16T12:18:37;7.70;;;2.90;;
64834;SDS011;51293;59.296;18.006;2022-10-16T12:21:12;8.52;;;2.97;;
64834;SDS011;51293;59.296;18.006;2022-10-16T12:23:51;6.43;;;2.85;;
64834;SDS011;51293;59.296;18.006;2022-10-16T12:29:14;10.02;;;3.20;;
64834;SDS011;51293;59.296;18.006;2022-10-16T12:31:49;5.75;;;2.75;;
64834;SDS011;51293;59.296;18.006;2022-10-16T12:35:01;5.78;;;2.92;;
64834;SDS011;51293;59.296;18.006;2022-10-16T12:37:08;5.50;;;2.88;;
64834;SDS011;51293;59.296;18.006;2022-10-16T12:39:44;4.45;;;2.42;;
64834;SDS011;51293;59.296;18.006;2022-10-16T12:42:33;3.78;;;2.22;;
64834;SDS011;51293;59.296;18.006;2022-10-16T12:44:59;6.47;;;2.50;;
64834;SDS011;51293;59.296;18.006;2022-10-16T12:49:56;4.60;;;2.40;;
64834;SDS011;51293;59.296;18.006;2022-10-16T12:54:55;4.90;;;2.50;;
64834;SDS011;51293;59.296;18.006;2022-10-16T13:06:11;4.57;;;2.17;;
64834;SDS011;51293;59.296;18.006;2022-10-16T13:08:37;4.63;;;2.40;;
64834;SDS011;51293;59.296;18.006;2022-10-16T13:11:15;5.50;;;2.70;;
64834;SDS011;51293;59.296;18.006;2022-10-16T13:22:17;5.75;;;2.38;;
64834;SDS011;51293;59.296;18.006;2022-10-16T13:28:00;7.00;;;3.03;;
64834;SDS011;51293;59.296;18.006;2022-10-16T13:30:33;5.43;;;2.20;;
64834;SDS011;51293;59.296;18.006;2022-10-16T13:33:10;4.82;;;2.03;;
64834;SDS011;51293;59.296;18.006;2022-10-16T13:35:58;3.85;;;2.22;;
64834;SDS011;51293;59.296;18.006;2022-10-16T13:38:25;7.25;;;2.17;;
64834;SDS011;51293;59.296;18.006;2022-10-16T13:40:59;4.72;;;2.00;;
64834;SDS011;51293;59.296;18.006;2022-10-16T13:43:33;5.32;;;1.83;;
64834;SDS011;51293;59.296;18.006;2022-10-16T13:46:20;4.50;;;2.05;;
64834;SDS011;51293;59.296;18.006;2022-10-16T13:49:00;5.13;;;2.00;;
64834;SDS011;51293;59.296;18.006;2022-10-16T13:51:27;3.95;;;1.90;;
64834;SDS011;51293;59.296;18.006;2022-10-16T13:53:55;12.68;;;2.05;;
64834;SDS011;51293;59.296;18.006;2022-10-16T13:56:25;8.30;;;2.13;;
64834;SDS011;51293;59.296;18.006;2022-10-16T13:59:02;6.00;;;2.33;;
64834;SDS011;51293;59.296;18.006;2022-10-16T14:01:46;4.88;;;1.88;;
64834;SDS011;51293;59.296;18.006;2022-10-16T14:04:12;6.32;;;2.10;;
64834;SDS011;51293;59.296;18.006;2022-10-16T14:06:40;6.78;;;2.03;;
64834;SDS011;51293;59.296;18.006;2022-10-16T14:09:20;6.32;;;2.10;;
64834;SDS011;51293;59.296;18.006;2022-10-16T14:11:50;3.67;;;1.70;;
64834;SDS011;51293;59.296;18.006;2022-10-16T14:14:23;6.35;;;1.98;;
64834;SDS011;51293;59.296;18.006;2022-10-16T14:16:51;8.60;;;2.10;;
64834;SDS011;51293;59.296;18.006;2022-10-16T14:19:27;5.95;;;2.20;;
64834;SDS011;51293;59.296;18.006;2022-10-16T14:21:54;4.63;;;1.85;;
64834;SDS011;51293;59.296;18.006;2022-10-16T14:26:55;5.53;;;2.20;;
64834;SDS011;51293;59.296;18.006;2022-10-16T14:29:21;5.28;;;2.05;;
64834;SDS011;51293;59.296;18.006;2022-10-16T14:31:58;7.05;;;2.10;;
64834;SDS011;51293;59.296;18.006;2022-10-16T14:34:33;6.18;;;2.17;;
64834;SDS011;51293;59.296;18.006;2022-10-16T14:37:01;4.85;;;2.08;;
64834;SDS011;51293;59.296;18.006;2022-10-16T14:41:59;6.55;;;2.35;;
64834;SDS011;51293;59.296;18.006;2022-10-16T14:44:33;6.03;;;1.83;;
64834;SDS011;51293;59.296;18.006;2022-10-16T14:47:06;5.53;;;2.25;;
64834;SDS011;51293;59.296;18.006;2022-10-16T14:49:35;6.38;;;2.42;;
64834;SDS011;51293;59.296;18.006;2022-10-16T14:52:00;4.20;;;1.83;;
64834;SDS011;51293;59.296;18.006;2022-10-16T14:54:26;4.57;;;2.10;;
64834;SDS011;51293;59.296;18.006;2022-10-16T14:56:56;3.72;;;2.15;;
64834;SDS011;51293;59.296;18.006;2022-10-16T15:01:57;5.30;;;2.00;;
64834;SDS011;51293;59.296;18.006;2022-10-16T15:04:23;5.60;;;2.17;;
64834;SDS011;51293;59.296;18.006;2022-10-16T15:06:48;5.97;;;2.10;;
64834;SDS011;51293;59.296;18.006;2022-10-16T15:09:14;5.32;;;2.38;;
64834;SDS011;51293;59.296;18.006;2022-10-16T15:11:39;5.60;;;2.17;;
64834;SDS011;51293;59.296;18.006;2022-10-16T15:14:08;6.25;;;2.40;;
64834;SDS011;51293;59.296;18.006;2022-10-16T15:16:36;6.00;;;2.65;;
64834;SDS011;51293;59.296;18.006;2022-10-16T15:19:02;8.65;;;2.65;;
64834;SDS011;51293;59.296;18.006;2022-10-16T15:21:28;5.53;;;2.70;;
64834;SDS011;51293;59.296;18.006;2022-10-16T15:23:55;25.83;;;4.30;;
64834;SDS011;51293;59.296;18.006;2022-10-16T15:26:22;8.73;;;1.50;;
64834;SDS011;51293;59.296;18.006;2022-10-16T15:28:49;5.28;;;1.25;;
64834;SDS011;51293;59.296;18.006;2022-10-16T15:31:14;3.75;;;1.10;;
64834;SDS011;51293;59.296;18.006;2022-10-16T15:33:39;2.75;;;1.20;;
64834;SDS011;51293;59.296;18.006;2022-10-16T15:36:05;4.97;;;1.08;;
64834;SDS011;51293;59.296;18.006;2022-10-16T15:38:31;7.00;;;1.30;;
64834;SDS011;51293;59.296;18.006;2022-10-16T15:40:56;5.05;;;1.30;;
64834;SDS011;51293;59.296;18.006;2022-10-16T15:43:22;3.35;;;1.13;;
64834;SDS011;51293;59.296;18.006;2022-10-16T15:45:58;4.95;;;1.23;;
64834;SDS011;51293;59.296;18.006;2022-10-16T15:48:26;4.80;;;1.40;;
64834;SDS011;51293;59.296;18.006;2022-10-16T15:50:52;4.97;;;1.33;;
64834;SDS011;51293;59.296;18.006;2022-10-16T15:53:17;6.70;;;1.33;;
64834;SDS011;51293;59.296;18.006;2022-10-16T15:55:42;3.22;;;1.30;;
64834;SDS011;51293;59.296;18.006;2022-10-16T15:58:08;4.35;;;1.40;;
64834;SDS011;51293;59.296;18.006;2022-10-16T16:00:33;4.10;;;1.38;;
64834;SDS011;51293;59.296;18.006;2022-10-16T16:02:59;5.28;;;1.60;;
64834;SDS011;51293;59.296;18.006;2022-10-16T16:05:24;5.93;;;1.98;;
64834;SDS011;51293;59.296;18.006;2022-10-16T16:07:49;5.55;;;1.63;;
64834;SDS011;51293;59.296;18.006;2022-10-16T16:10:15;7.10;;;1.40;;
64834;SDS011;51293;59.296;18.006;2022-10-16T16:12:41;7.45;;;1.75;;
64834;SDS011;51293;59.296;18.006;2022-10-16T16:15:07;5.30;;;1.70;;
64834;SDS011;51293;59.296;18.006;2022-10-16T16:17:34;3.35;;;1.58;;
64834;SDS011;51293;59.296;18.006;2022-10-16T16:20:00;5.40;;;1.80;;
64834;SDS011;51293;59.296;18.006;2022-10-16T16:22:26;6.63;;;1.70;;
64834;SDS011;51293;59.296;18.006;2022-10-16T16:24:51;4.85;;;1.30;;
64834;SDS011;51293;59.296;18.006;2022-10-16T16:27:17;7.32;;;1.70;;
64834;SDS011;51293;59.296;18.006;2022-10-16T16:29:42;5.50;;;1.60;;
64834;SDS011;51293;59.296;18.006;2022-10-16T16:32:07;4.20;;;1.40;;
64834;SDS011;51293;59.296;18.006;2022-10-16T16:34:33;4.93;;;1.40;;
64834;SDS011;51293;59.296;18.006;2022-10-16T16:36:59;6.03;;;1.20;;
64834;SDS011;51293;59.296;18.006;2022-10-16T16:39:24;3.63;;;1.00;;
64834;SDS011;51293;59.296;18.006;2022-10-16T16:41:50;4.15;;;1.60;;
64834;SDS011;51293;59.296;18.006;2022-10-16T16:44:15;3.83;;;1.17;;